sensor_id;sensor_type;location;lat;lon;timestamp;P1;durP1;ratioP1;P2;durP2;ratioP2
1679;SDS011;838;51.794;12.258;2023-04-01T00:01:32;7.37;;;1.83;;
1679;SDS011;838;51.794;12.258;2023-04-01T00:03:57;4.20;;;1.47;;
1679;SDS011;838;51.794;12.258;2023-04-01T00:06:24;5.47;;;1.57;;
1679;SDS011;838;51.794;12.258;2023-04-01T00:08:50;6.23;;;1.73;;
1679;SDS011;838;51.794;12.258;2023-04-01T00:11:18;6.07;;;1.40;;
1679;SDS011;838;51.794;12.258;2023-04-01T00:13:43;4.63;;;1.30;;
1679;SDS011;838;51.794;12.258;2023-04-01T00:16:10;4.20;;;1.67;;
1679;SDS011;838;51.794;12.258;2023-04-01T00:18:36;4.97;;;1.60;;
1679;SDS011;838;51.794;12.258;2023-04-01T00:21:03;4.40;;;1.73;;
1679;SDS011;838;51.794;12.258;2023-04-01T00:23:30;3.80;;;2.33;;
1679;SDS011;838;51.794;12.258;2023-04-01T00:25:56;4.07;;;2.03;;
1679;SDS011;838;51.794;12.258;2023-04-01T00:28:24;4.70;;;1.60;;
1679;SDS011;838;51.794;12.258;2023-04-01T00:30:51;3.67;;;1.60;;
1679;SDS011;838;51.794;12.258;2023-04-01T00:33:16;4.80;;;1.67;;
1679;SDS011;838;51.794;12.258;2023-04-01T00:35:42;5.80;;;1.50;;
1679;SDS011;838;51.794;12.258;2023-04-01T00:38:09;4.33;;;1.60;;
1679;SDS011;838;51.794;12.258;2023-04-01T00:40:43;4.10;;;1.83;;
1679;SDS011;838;51.794;12.258;2023-04-01T00:43:17;5.40;;;1.90;;
1679;SDS011;838;51.794;12.258;2023-04-01T00:45:45;5.00;;;1.70;;
1679;SDS011;838;51.794;12.258;2023-04-01T00:48:19;4.23;;;1.53;;
1679;SDS011;838;51.794;12.258;2023-04-01T00:50:49;6.63;;;1.90;;
1679;SDS011;838;51.794;12.258;2023-04-01T00:53:34;5.33;;;1.80;;
1679;SDS011;838;51.794;12.258;2023-04-01T00:56:04;6.57;;;2.03;;
1679;SDS011;838;51.794;12.258;2023-04-01T00:58:35;4.97;;;2.10;;
1679;SDS011;838;51.794;12.258;2023-04-01T01:01:05;5.23;;;1.93;;
1679;SDS011;838;51.794;12.258;2023-04-01T01:03:33;4.17;;;1.60;;
1679;SDS011;838;51.794;12.258;2023-04-01T01:11:03;4.10;;;2.20;;
1679;SDS011;838;51.794;12.258;2023-04-01T01:13:34;5.53;;;1.93;;
1679;SDS011;838;51.794;12.258;2023-04-01T01:16:12;6.10;;;3.10;;
1679;SDS011;838;51.794;12.258;2023-04-01T01:18:50;4.33;;;1.90;;
1679;SDS011;838;51.794;12.258;2023-04-01T01:24:43;5.10;;;1.87;;
1679;SDS011;838;51.794;12.258;2023-04-01T01:27:37;7.27;;;2.00;;
1679;SDS011;838;51.794;12.258;2023-04-01T01:35:48;5.13;;;1.90;;
1679;SDS011;838;51.794;12.258;2023-04-01T01:38:18;8.67;;;1.87;;
1679;SDS011;838;51.794;12.258;2023-04-01T01:40:48;4.00;;;1.97;;
1679;SDS011;838;51.794;12.258;2023-04-01T01:43:19;4.50;;;1.80;;
1679;SDS011;838;51.794;12.258;2023-04-01T01:45:50;6.63;;;2.10;;
1679;SDS011;838;51.794;12.258;2023-04-01T01:48:19;4.37;;;1.80;;
1679;SDS011;838;51.794;12.258;2023-04-01T01:50:45;3.80;;;1.90;;
1679;SDS011;838;51.794;12.258;2023-04-01T01:53:13;4.27;;;2.10;;
1679;SDS011;838;51.794;12.258;2023-04-01T01:55:40;5.20;;;2.27;;
1679;SDS011;838;51.794;12.258;2023-04-01T02:00:48;6.40;;;2.10;;
1679;SDS011;838;51.794;12.258;2023-04-01T02:03:36;4.83;;;1.70;;
1679;SDS011;838;51.794;12.258;2023-04-01T02:06:05;5.33;;;1.90;;
1679;SDS011;838;51.794;12.258;2023-04-01T02:08:37;4.20;;;2.00;;
1679;SDS011;838;51.794;12.258;2023-04-01T02:11:09;3.23;;;1.70;;
1679;SDS011;838;51.794;12.258;2023-04-01T02:13:43;5.47;;;2.20;;
1679;SDS011;838;51.794;12.258;2023-04-01T02:16:20;6.90;;;2.53;;
1679;SDS011;838;51.794;12.258;2023-04-01T02:19:05;4.20;;;1.93;;
1679;SDS011;838;51.794;12.258;2023-04-01T02:21:32;4.80;;;1.83;;
1679;SDS011;838;51.794;12.258;2023-04-01T02:24:00;11.13;;;2.30;;
1679;SDS011;838;51.794;12.258;2023-04-01T02:26:29;6.00;;;1.90;;
1679;SDS011;838;51.794;12.258;2023-04-01T02:28:55;5.50;;;2.70;;
1679;SDS011;838;51.794;12.258;2023-04-01T02:31:24;4.47;;;2.00;;
1679;SDS011;838;51.794;12.258;2023-04-01T02:33:50;3.67;;;1.80;;
1679;SDS011;838;51.794;12.258;2023-04-01T02:36:18;3.47;;;1.90;;
1679;SDS011;838;51.794;12.258;2023-04-01T02:38:44;3.10;;;1.60;;
1679;SDS011;838;51.794;12.258;2023-04-01T02:41:11;4.53;;;1.87;;
1679;SDS011;838;51.794;12.258;2023-04-01T02:43:37;4.60;;;2.13;;
1679;SDS011;838;51.794;12.258;2023-04-01T02:46:03;5.37;;;2.03;;
1679;SDS011;838;51.794;12.258;2023-04-01T02:48:29;6.50;;;1.87;;
1679;SDS011;838;51.794;12.258;2023-04-01T02:50:55;3.77;;;2.00;;
1679;SDS011;838;51.794;12.258;2023-04-01T02:53:21;5.70;;;2.00;;
1679;SDS011;838;51.794;12.258;2023-04-01T02:55:47;5.10;;;1.93;;
1679;SDS011;838;51.794;12.258;2023-04-01T02:58:15;4.87;;;2.10;;
1679;SDS011;838;51.794;12.258;2023-04-01T03:00:41;3.60;;;2.10;;
1679;SDS011;838;51.794;12.258;2023-04-01T03:03:08;5.20;;;2.60;;
1679;SDS011;838;51.794;12.258;2023-04-01T03:05:34;5.80;;;2.10;;
1679;SDS011;838;51.794;12.258;2023-04-01T03:08:00;4.80;;;1.80;;
1679;SDS011;838;51.794;12.258;2023-04-01T03:10:26;8.07;;;2.30;;
1679;SDS011;838;51.794;12.258;2023-04-01T03:12:52;4.40;;;1.83;;
1679;SDS011;838;51.794;12.258;2023-04-01T03:15:17;5.27;;;1.87;;
1679;SDS011;838;51.794;12.258;2023-04-01T03:17:43;5.40;;;2.23;;
1679;SDS011;838;51.794;12.258;2023-04-01T03:20:10;5.83;;;1.90;;
1679;SDS011;838;51.794;12.258;2023-04-01T03:22:36;5.10;;;2.30;;
1679;SDS011;838;51.794;12.258;2023-04-01T03:25:03;6.67;;;2.17;;
1679;SDS011;838;51.794;12.258;2023-04-01T03:27:29;5.50;;;2.20;;
1679;SDS011;838;51.794;12.258;2023-04-01T03:29:55;4.40;;;1.87;;
1679;SDS011;838;51.794;12.258;2023-04-01T03:32:21;5.57;;;2.20;;
1679;SDS011;838;51.794;12.258;2023-04-01T03:34:46;4.70;;;1.90;;
1679;SDS011;838;51.794;12.258;2023-04-01T03:37:12;3.30;;;1.97;;
1679;SDS011;838;51.794;12.258;2023-04-01T03:39:39;4.37;;;2.10;;
1679;SDS011;838;51.794;12.258;2023-04-01T03:42:04;6.40;;;2.67;;
1679;SDS011;838;51.794;12.258;2023-04-01T03:44:31;4.33;;;2.10;;
1679;SDS011;838;51.794;12.258;2023-04-01T03:46:58;5.60;;;2.30;;
1679;SDS011;838;51.794;12.258;2023-04-01T03:49:25;6.50;;;2.27;;
1679;SDS011;838;51.794;12.258;2023-04-01T03:51:51;5.20;;;2.00;;
1679;SDS011;838;51.794;12.258;2023-04-01T03:54:17;9.33;;;2.40;;
1679;SDS011;838;51.794;12.258;2023-04-01T03:56:44;5.37;;;2.23;;
1679;SDS011;838;51.794;12.258;2023-04-01T03:59:10;4.57;;;2.40;;
1679;SDS011;838;51.794;12.258;2023-04-01T04:01:36;5.00;;;2.43;;
1679;SDS011;838;51.794;12.258;2023-04-01T04:04:02;7.60;;;2.87;;
1679;SDS011;838;51.794;12.258;2023-04-01T04:06:28;4.03;;;2.07;;
1679;SDS011;838;51.794;12.258;2023-04-01T04:08:54;6.20;;;3.07;;
1679;SDS011;838;51.794;12.258;2023-04-01T04:11:20;4.97;;;2.47;;
1679;SDS011;838;51.794;12.258;2023-04-01T04:13:47;5.60;;;2.27;;
1679;SDS011;838;51.794;12.258;2023-04-01T04:16:13;3.90;;;2.23;;
1679;SDS011;838;51.794;12.258;2023-04-01T04:18:40;5.10;;;2.30;;
1679;SDS011;838;51.794;12.258;2023-04-01T04:21:05;5.90;;;2.73;;
1679;SDS011;838;51.794;12.258;2023-04-01T04:23:31;4.60;;;2.10;;
1679;SDS011;838;51.794;12.258;2023-04-01T04:26:05;3.93;;;1.80;;
1679;SDS011;838;51.794;12.258;2023-04-01T04:28:33;4.07;;;2.20;;
1679;SDS011;838;51.794;12.258;2023-04-01T04:30:59;4.83;;;2.30;;
1679;SDS011;838;51.794;12.258;2023-04-01T04:33:25;6.60;;;2.23;;
1679;SDS011;838;51.794;12.258;2023-04-01T04:35:54;6.53;;;2.50;;
1679;SDS011;838;51.794;12.258;2023-04-01T04:38:20;5.73;;;2.60;;
1679;SDS011;838;51.794;12.258;2023-04-01T04:40:46;5.03;;;2.30;;
1679;SDS011;838;51.794;12.258;2023-04-01T04:43:12;4.60;;;2.40;;
1679;SDS011;838;51.794;12.258;2023-04-01T04:45:40;4.93;;;1.90;;
1679;SDS011;838;51.794;12.258;2023-04-01T04:48:09;4.30;;;2.20;;
1679;SDS011;838;51.794;12.258;2023-04-01T04:50:41;4.60;;;2.60;;
1679;SDS011;838;51.794;12.258;2023-04-01T04:53:09;6.17;;;2.53;;
1679;SDS011;838;51.794;12.258;2023-04-01T04:55:35;6.30;;;3.00;;
1679;SDS011;838;51.794;12.258;2023-04-01T04:58:01;5.90;;;2.30;;
1679;SDS011;838;51.794;12.258;2023-04-01T05:00:27;6.60;;;2.70;;
1679;SDS011;838;51.794;12.258;2023-04-01T05:02:52;4.80;;;2.30;;
1679;SDS011;838;51.794;12.258;2023-04-01T05:05:18;4.10;;;2.53;;
1679;SDS011;838;51.794;12.258;2023-04-01T05:07:44;5.90;;;3.33;;
1679;SDS011;838;51.794;12.258;2023-04-01T05:10:10;6.80;;;3.70;;
1679;SDS011;838;51.794;12.258;2023-04-01T05:12:35;8.97;;;3.03;;
1679;SDS011;838;51.794;12.258;2023-04-01T05:15:04;4.73;;;2.53;;
1679;SDS011;838;51.794;12.258;2023-04-01T05:17:30;5.53;;;2.37;;
1679;SDS011;838;51.794;12.258;2023-04-01T05:19:56;4.50;;;2.50;;
1679;SDS011;838;51.794;12.258;2023-04-01T05:22:22;6.07;;;2.40;;
1679;SDS011;838;51.794;12.258;2023-04-01T05:24:48;6.40;;;2.57;;
1679;SDS011;838;51.794;12.258;2023-04-01T05:27:14;4.37;;;2.20;;
1679;SDS011;838;51.794;12.258;2023-04-01T05:29:40;4.40;;;2.80;;
1679;SDS011;838;51.794;12.258;2023-04-01T05:32:05;3.60;;;2.10;;
1679;SDS011;838;51.794;12.258;2023-04-01T05:34:31;5.23;;;2.67;;
1679;SDS011;838;51.794;12.258;2023-04-01T05:36:57;5.47;;;2.50;;
1679;SDS011;838;51.794;12.258;2023-04-01T05:39:23;5.23;;;2.40;;
1679;SDS011;838;51.794;12.258;2023-04-01T05:41:48;3.87;;;2.20;;
1679;SDS011;838;51.794;12.258;2023-04-01T05:44:14;4.97;;;2.37;;
1679;SDS011;838;51.794;12.258;2023-04-01T05:46:40;6.20;;;2.30;;
1679;SDS011;838;51.794;12.258;2023-04-01T05:49:06;4.80;;;2.10;;
1679;SDS011;838;51.794;12.258;2023-04-01T05:51:32;6.23;;;2.00;;
1679;SDS011;838;51.794;12.258;2023-04-01T05:53:57;5.07;;;2.40;;
1679;SDS011;838;51.794;12.258;2023-04-01T05:56:23;7.40;;;2.33;;
1679;SDS011;838;51.794;12.258;2023-04-01T05:58:51;6.43;;;2.20;;
1679;SDS011;838;51.794;12.258;2023-04-01T06:01:18;6.57;;;2.60;;
1679;SDS011;838;51.794;12.258;2023-04-01T06:03:44;5.40;;;2.53;;
1679;SDS011;838;51.794;12.258;2023-04-01T06:06:14;9.20;;;2.30;;
1679;SDS011;838;51.794;12.258;2023-04-01T06:08:43;10.03;;;2.70;;
1679;SDS011;838;51.794;12.258;2023-04-01T06:30:53;5.70;;;2.50;;
1679;SDS011;838;51.794;12.258;2023-04-01T06:39:36;4.70;;;2.50;;
1679;SDS011;838;51.794;12.258;2023-04-01T06:44:47;6.17;;;2.73;;
1679;SDS011;838;51.794;12.258;2023-04-01T06:52:39;4.07;;;1.73;;
1679;SDS011;838;51.794;12.258;2023-04-01T06:57:54;6.13;;;2.43;;
1679;SDS011;838;51.794;12.258;2023-04-01T07:02:58;4.90;;;2.50;;
1679;SDS011;838;51.794;12.258;2023-04-01T07:05:38;5.27;;;2.57;;
1679;SDS011;838;51.794;12.258;2023-04-01T07:08:06;4.53;;;1.73;;
1679;SDS011;838;51.794;12.258;2023-04-01T07:10:47;4.73;;;1.77;;
1679;SDS011;838;51.794;12.258;2023-04-01T07:13:31;3.97;;;1.60;;
1679;SDS011;838;51.794;12.258;2023-04-01T07:16:17;5.80;;;2.03;;
1679;SDS011;838;51.794;12.258;2023-04-01T07:21:49;5.50;;;2.10;;
1679;SDS011;838;51.794;12.258;2023-04-01T07:24:27;3.23;;;1.67;;
1679;SDS011;838;51.794;12.258;2023-04-01T07:26:59;6.23;;;2.10;;
1679;SDS011;838;51.794;12.258;2023-04-01T07:29:25;4.80;;;2.00;;
1679;SDS011;838;51.794;12.258;2023-04-01T07:35:00;4.47;;;1.90;;
1679;SDS011;838;51.794;12.258;2023-04-01T07:37:57;4.97;;;1.80;;
1679;SDS011;838;51.794;12.258;2023-04-01T07:40:48;5.67;;;2.17;;
1679;SDS011;838;51.794;12.258;2023-04-01T07:43:38;4.73;;;1.87;;
1679;SDS011;838;51.794;12.258;2023-04-01T07:49:34;5.37;;;1.83;;
1679;SDS011;838;51.794;12.258;2023-04-01T07:52:00;3.03;;;1.43;;
1679;SDS011;838;51.794;12.258;2023-04-01T07:54:43;3.43;;;1.33;;
1679;SDS011;838;51.794;12.258;2023-04-01T08:05:28;4.30;;;1.40;;
1679;SDS011;838;51.794;12.258;2023-04-01T08:10:50;7.13;;;1.70;;
1679;SDS011;838;51.794;12.258;2023-04-01T08:21:17;3.67;;;1.07;;
1679;SDS011;838;51.794;12.258;2023-04-01T08:23:49;3.80;;;1.30;;
1679;SDS011;838;51.794;12.258;2023-04-01T08:26:32;3.57;;;1.30;;
1679;SDS011;838;51.794;12.258;2023-04-01T08:29:15;4.23;;;1.67;;
1679;SDS011;838;51.794;12.258;2023-04-01T08:31:59;4.10;;;1.27;;
1679;SDS011;838;51.794;12.258;2023-04-01T08:34:42;3.70;;;1.43;;
1679;SDS011;838;51.794;12.258;2023-04-01T08:37:22;3.00;;;1.30;;
1679;SDS011;838;51.794;12.258;2023-04-01T08:39:58;4.80;;;1.60;;
1679;SDS011;838;51.794;12.258;2023-04-01T08:42:43;5.53;;;1.30;;
1679;SDS011;838;51.794;12.258;2023-04-01T08:50:50;3.90;;;1.40;;
1679;SDS011;838;51.794;12.258;2023-04-01T08:56:23;3.40;;;1.40;;
1679;SDS011;838;51.794;12.258;2023-04-01T09:04:17;4.07;;;1.37;;
1679;SDS011;838;51.794;12.258;2023-04-01T09:15:37;4.63;;;1.50;;
1679;SDS011;838;51.794;12.258;2023-04-01T09:21:16;4.10;;;1.10;;
1679;SDS011;838;51.794;12.258;2023-04-01T09:34:53;4.63;;;1.00;;
1679;SDS011;838;51.794;12.258;2023-04-01T09:37:46;3.47;;;1.27;;
1679;SDS011;838;51.794;12.258;2023-04-01T09:40:37;3.27;;;0.97;;
1679;SDS011;838;51.794;12.258;2023-04-01T09:51:56;4.60;;;1.20;;
1679;SDS011;838;51.794;12.258;2023-04-01T09:54:43;4.57;;;1.50;;
1679;SDS011;838;51.794;12.258;2023-04-01T10:12:07;3.73;;;1.40;;
1679;SDS011;838;51.794;12.258;2023-04-01T10:34:28;3.30;;;1.30;;
1679;SDS011;838;51.794;12.258;2023-04-01T10:43:23;3.00;;;0.83;;
1679;SDS011;838;51.794;12.258;2023-04-01T10:48:53;2.70;;;0.90;;
1679;SDS011;838;51.794;12.258;2023-04-01T11:20:24;3.47;;;1.20;;
1679;SDS011;838;51.794;12.258;2023-04-01T11:25:56;4.03;;;1.20;;
1679;SDS011;838;51.794;12.258;2023-04-01T11:36:37;2.30;;;0.87;;
1679;SDS011;838;51.794;12.258;2023-04-01T11:39:11;7.50;;;1.43;;
1679;SDS011;838;51.794;12.258;2023-04-01T11:41:52;3.27;;;1.40;;
1679;SDS011;838;51.794;12.258;2023-04-01T11:44:55;2.90;;;1.00;;
1679;SDS011;838;51.794;12.258;2023-04-01T12:10:26;3.70;;;1.30;;
1679;SDS011;838;51.794;12.258;2023-04-01T12:21:49;2.83;;;1.07;;
1679;SDS011;838;51.794;12.258;2023-04-01T12:29:44;3.00;;;1.10;;
1679;SDS011;838;51.794;12.258;2023-04-01T12:37:58;2.70;;;0.80;;
1679;SDS011;838;51.794;12.258;2023-04-01T12:41:09;3.63;;;1.47;;
1679;SDS011;838;51.794;12.258;2023-04-01T12:52:25;2.97;;;1.00;;
1679;SDS011;838;51.794;12.258;2023-04-01T12:57:58;5.70;;;3.10;;
1679;SDS011;838;51.794;12.258;2023-04-01T13:00:35;4.00;;;1.40;;
1679;SDS011;838;51.794;12.258;2023-04-01T13:11:56;3.20;;;1.00;;
1679;SDS011;838;51.794;12.258;2023-04-01T13:17:32;2.60;;;1.10;;
1679;SDS011;838;51.794;12.258;2023-04-01T13:26:06;5.70;;;1.17;;
1679;SDS011;838;51.794;12.258;2023-04-01T13:31:53;2.83;;;1.10;;
1679;SDS011;838;51.794;12.258;2023-04-01T13:39:47;3.00;;;1.30;;
1679;SDS011;838;51.794;12.258;2023-04-01T13:48:23;4.20;;;1.60;;
1679;SDS011;838;51.794;12.258;2023-04-01T13:56:32;6.13;;;1.43;;
1679;SDS011;838;51.794;12.258;2023-04-01T14:07:50;2.90;;;1.00;;
1679;SDS011;838;51.794;12.258;2023-04-01T14:13:18;2.50;;;0.80;;
1679;SDS011;838;51.794;12.258;2023-04-01T14:30:04;2.80;;;0.97;;
1679;SDS011;838;51.794;12.258;2023-04-01T14:32:46;2.90;;;1.10;;
1679;SDS011;838;51.794;12.258;2023-04-01T14:40:54;2.83;;;0.90;;
1679;SDS011;838;51.794;12.258;2023-04-01T14:43:41;2.70;;;1.00;;
1679;SDS011;838;51.794;12.258;2023-04-01T14:46:26;3.23;;;0.90;;
1679;SDS011;838;51.794;12.258;2023-04-01T14:51:57;2.90;;;1.00;;
1679;SDS011;838;51.794;12.258;2023-04-01T14:54:38;2.57;;;0.80;;
1679;SDS011;838;51.794;12.258;2023-04-01T14:57:15;3.03;;;0.90;;
1679;SDS011;838;51.794;12.258;2023-04-01T15:02:46;2.93;;;1.30;;
1679;SDS011;838;51.794;12.258;2023-04-01T15:08:12;4.00;;;1.47;;
1679;SDS011;838;51.794;12.258;2023-04-01T15:16:46;4.03;;;2.10;;
1679;SDS011;838;51.794;12.258;2023-04-01T15:19:50;4.27;;;2.13;;
1679;SDS011;838;51.794;12.258;2023-04-01T15:22:54;4.17;;;1.70;;
1679;SDS011;838;51.794;12.258;2023-04-01T15:39:09;3.17;;;1.63;;
1679;SDS011;838;51.794;12.258;2023-04-01T15:41:56;4.23;;;2.00;;
1679;SDS011;838;51.794;12.258;2023-04-01T15:50:37;4.13;;;1.43;;
1679;SDS011;838;51.794;12.258;2023-04-01T15:52:50;3.53;;;1.40;;
1679;SDS011;838;51.794;12.258;2023-04-01T15:55:39;3.70;;;1.07;;
1679;SDS011;838;51.794;12.258;2023-04-01T15:58:28;2.50;;;0.97;;
1679;SDS011;838;51.794;12.258;2023-04-01T16:12:07;3.03;;;0.83;;
1679;SDS011;838;51.794;12.258;2023-04-01T16:14:49;2.63;;;0.90;;
1679;SDS011;838;51.794;12.258;2023-04-01T16:17:36;2.80;;;0.93;;
1679;SDS011;838;51.794;12.258;2023-04-01T16:20:24;3.30;;;0.93;;
1679;SDS011;838;51.794;12.258;2023-04-01T16:28:48;8.33;;;2.57;;
1679;SDS011;838;51.794;12.258;2023-04-01T16:31:27;5.70;;;2.50;;
1679;SDS011;838;51.794;12.258;2023-04-01T16:34:01;7.00;;;3.27;;
1679;SDS011;838;51.794;12.258;2023-04-01T16:36:54;5.53;;;4.00;;
1679;SDS011;838;51.794;12.258;2023-04-01T16:43:04;5.90;;;4.23;;
1679;SDS011;838;51.794;12.258;2023-04-01T17:01:53;4.73;;;3.40;;
1679;SDS011;838;51.794;12.258;2023-04-01T17:04:23;4.53;;;3.37;;
1679;SDS011;838;51.794;12.258;2023-04-01T17:26:52;5.67;;;4.40;;
1679;SDS011;838;51.794;12.258;2023-04-01T17:32:54;8.97;;;5.30;;
1679;SDS011;838;51.794;12.258;2023-04-01T17:41:41;6.40;;;4.53;;
1679;SDS011;838;51.794;12.258;2023-04-01T17:44:01;6.57;;;5.70;;
1679;SDS011;838;51.794;12.258;2023-04-01T17:50:08;6.23;;;5.20;;
1679;SDS011;838;51.794;12.258;2023-04-01T17:57:45;6.10;;;4.20;;
1679;SDS011;838;51.794;12.258;2023-04-01T18:19:17;5.77;;;3.90;;
1679;SDS011;838;51.794;12.258;2023-04-01T18:24:56;5.30;;;4.10;;
1679;SDS011;838;51.794;12.258;2023-04-01T18:30:40;6.03;;;4.43;;
1679;SDS011;838;51.794;12.258;2023-04-01T18:33:09;4.37;;;3.27;;
1679;SDS011;838;51.794;12.258;2023-04-01T18:36:21;4.77;;;3.57;;
1679;SDS011;838;51.794;12.258;2023-04-01T18:38:53;5.57;;;3.93;;
1679;SDS011;838;51.794;12.258;2023-04-01T18:47:23;4.13;;;3.13;;
1679;SDS011;838;51.794;12.258;2023-04-01T18:55:56;4.57;;;3.30;;
1679;SDS011;838;51.794;12.258;2023-04-01T19:01:42;4.10;;;2.90;;
1679;SDS011;838;51.794;12.258;2023-04-01T19:06:44;3.60;;;2.60;;
1679;SDS011;838;51.794;12.258;2023-04-01T19:14:56;4.07;;;3.00;;
1679;SDS011;838;51.794;12.258;2023-04-01T19:21:38;4.00;;;2.93;;
1679;SDS011;838;51.794;12.258;2023-04-01T19:26:12;3.73;;;3.03;;
1679;SDS011;838;51.794;12.258;2023-04-01T19:34:08;5.30;;;3.60;;
1679;SDS011;838;51.794;12.258;2023-04-01T19:36:48;4.93;;;3.77;;
1679;SDS011;838;51.794;12.258;2023-04-01T19:41:51;4.77;;;3.67;;
1679;SDS011;838;51.794;12.258;2023-04-01T19:52:52;4.97;;;3.63;;
1679;SDS011;838;51.794;12.258;2023-04-01T20:00:50;5.20;;;4.00;;
1679;SDS011;838;51.794;12.258;2023-04-01T20:12:20;5.97;;;4.60;;
1679;SDS011;838;51.794;12.258;2023-04-01T20:14:59;6.90;;;5.67;;
1679;SDS011;838;51.794;12.258;2023-04-01T20:17:42;6.00;;;4.80;;
1679;SDS011;838;51.794;12.258;2023-04-01T20:25:22;6.53;;;5.70;;
1679;SDS011;838;51.794;12.258;2023-04-01T21:15:02;7.50;;;6.20;;
1679;SDS011;838;51.794;12.258;2023-04-01T21:28:37;9.77;;;7.40;;
1679;SDS011;838;51.794;12.258;2023-04-01T21:31:41;8.27;;;6.70;;
1679;SDS011;838;51.794;12.258;2023-04-01T21:42:51;9.93;;;6.27;;
1679;SDS011;838;51.794;12.258;2023-04-01T22:10:39;5.63;;;4.90;;
1679;SDS011;838;51.794;12.258;2023-04-01T22:13:21;6.90;;;4.60;;
1679;SDS011;838;51.794;12.258;2023-04-01T22:15:58;5.70;;;4.80;;
1679;SDS011;838;51.794;12.258;2023-04-01T22:18:45;5.60;;;4.60;;
1679;SDS011;838;51.794;12.258;2023-04-01T22:48:20;6.77;;;4.70;;
1679;SDS011;838;51.794;12.258;2023-04-01T22:56:33;7.30;;;4.43;;
1679;SDS011;838;51.794;12.258;2023-04-01T22:59:15;6.97;;;4.60;;
1679;SDS011;838;51.794;12.258;2023-04-01T23:02:06;7.23;;;5.30;;
1679;SDS011;838;51.794;12.258;2023-04-01T23:04:49;6.40;;;4.80;;
1679;SDS011;838;51.794;12.258;2023-04-01T23:13:50;13.27;;;7.57;;
1679;SDS011;838;51.794;12.258;2023-04-01T23:16:09;7.90;;;5.73;;
1679;SDS011;838;51.794;12.258;2023-04-01T23:19:23;7.03;;;5.83;;
1679;SDS011;838;51.794;12.258;2023-04-01T23:21:35;7.77;;;5.40;;
1679;SDS011;838;51.794;12.258;2023-04-01T23:26:59;7.90;;;5.97;;
1679;SDS011;838;51.794;12.258;2023-04-01T23:29:36;8.43;;;6.10;;
1679;SDS011;838;51.794;12.258;2023-04-01T23:32:14;9.97;;;6.23;;
1679;SDS011;838;51.794;12.258;2023-04-01T23:34:53;7.83;;;6.30;;
1679;SDS011;838;51.794;12.258;2023-04-01T23:37:23;7.90;;;6.20;;
1679;SDS011;838;51.794;12.258;2023-04-01T23:39:51;9.27;;;6.30;;
1679;SDS011;838;51.794;12.258;2023-04-01T23:42:21;7.30;;;5.90;;
1679;SDS011;838;51.794;12.258;2023-04-01T23:44:53;9.43;;;6.27;;
1679;SDS011;838;51.794;12.258;2023-04-01T23:47:23;9.37;;;6.23;;
1679;SDS011;838;51.794;12.258;2023-04-01T23:49:58;8.20;;;6.00;;
1679;SDS011;838;51.794;12.258;2023-04-01T23:52:49;9.77;;;6.00;;
1679;SDS011;838;51.794;12.258;2023-04-01T23:55:24;8.43;;;5.70;;
